createdAt,value
2023-03-10T00:01:19.685Z,98198.19
2023-03-10T00:06:14.131Z,98297.16
2023-03-10T00:11:07.373Z,98246.63
2023-03-10T00:15:59.364Z,98250.28
2023-03-10T00:20:56.380Z,98230.38
2023-03-10T00:25:56.636Z,98295.31
2023-03-10T00:31:11.553Z,98133.56
2023-03-10T00:36:10.033Z,98141.66
2023-03-10T00:41:04.391Z,98280.88
2023-03-10T00:45:56.228Z,98205.75
2023-03-10T00:50:48.609Z,98284.75
2023-03-10T00:55:40.308Z,98301.56
2023-03-10T01:00:32.816Z,98148.75
2023-03-10T01:05:24.555Z,98193.50
2023-03-10T01:10:19.248Z,98230.91
2023-03-10T01:15:12.103Z,98292.16
2023-03-10T01:20:10.696Z,98224.63
2023-03-10T01:25:03.160Z,98191.94
2023-03-10T01:29:56.639Z,98170.72
2023-03-10T01:34:49.148Z,98282.22
2023-03-10T01:39:40.974Z,98243.94
2023-03-10T01:44:32.702Z,98182.47
2023-03-10T01:49:41.597Z,98273.25
2023-03-10T01:54:59.633Z,98273.75
2023-03-10T01:59:54.452Z,98161.78
2023-03-10T02:04:49.126Z,98210.19
2023-03-10T02:09:48.114Z,98229.03
2023-03-10T02:14:40.382Z,98273.31
2023-03-10T02:19:45.621Z,98244.50
2023-03-10T02:25:16.526Z,98284.28
2023-03-10T02:30:13.075Z,98283.22
2023-03-10T02:35:08.615Z,98211.50
2023-03-10T02:40:29.722Z,98276.44
2023-03-10T02:45:22.514Z,98248.72
2023-03-10T02:50:17.942Z,98257.09
2023-03-10T02:55:15.578Z,98069.75
2023-03-10T03:00:09.656Z,98178.06
2023-03-10T03:05:02.209Z,98128.63
2023-03-10T03:09:57.103Z,98174.41
2023-03-10T03:14:48.984Z,97999.13
2023-03-10T03:19:41.634Z,98150.84
2023-03-10T03:24:33.406Z,98179.13
2023-03-10T03:29:27.300Z,98184.88
2023-03-10T03:34:20.831Z,98268.66
2023-03-10T03:39:17.530Z,98275.44
2023-03-10T03:44:12.665Z,97999.09
2023-03-10T03:49:06.250Z,98184.59
2023-03-10T03:53:58.386Z,98114.19
2023-03-10T03:58:50.322Z,98242.19
2023-03-10T04:03:43.988Z,98236.69
2023-03-10T04:08:40.674Z,98235.66
2023-03-10T04:13:32.672Z,98040.88
2023-03-10T04:18:28.009Z,98215.75
2023-03-10T04:23:20.766Z,98175.41
2023-03-10T04:28:13.659Z,98184.59
2023-03-10T04:33:05.478Z,98158.94
2023-03-10T04:37:59.506Z,98076.47
2023-03-10T04:42:52.790Z,98165.47
2023-03-10T04:47:45.724Z,98106.56
2023-03-10T04:52:37.441Z,98196.31
2023-03-10T04:57:30.285Z,98062.03
2023-03-10T05:02:22.118Z,98060.53
2023-03-10T05:07:15.780Z,97999.59
2023-03-10T05:12:12.833Z,98157.13
2023-03-10T05:17:05.504Z,98177.53
2023-03-10T05:21:57.561Z,98081.00
2023-03-10T05:26:52.612Z,98100.34
2023-03-10T05:31:44.540Z,98014.28
2023-03-10T05:36:43.058Z,98162.63
2023-03-10T05:41:35.967Z,98152.16
2023-03-10T05:46:29.724Z,98177.03
2023-03-10T05:51:23.919Z,98170.22
2023-03-10T05:56:18.742Z,98116.84
2023-03-10T06:01:14.336Z,98076.56
2023-03-10T06:06:07.908Z,98140.38
2023-03-10T06:10:59.586Z,98179.63
2023-03-10T06:15:59.182Z,98144.84
2023-03-10T06:20:52.367Z,98042.56
2023-03-10T06:25:45.581Z,98177.03
2023-03-10T06:30:37.376Z,98141.16
2023-03-10T06:35:31.918Z,98145.63
2023-03-10T06:40:24.299Z,98098.00
2023-03-10T06:45:19.568Z,98113.19
2023-03-10T06:50:12.920Z,98172.56
2023-03-10T06:55:06.750Z,98106.63
2023-03-10T06:59:58.382Z,98100.59
2023-03-10T07:04:50.212Z,98165.13
2023-03-10T07:09:42.040Z,98100.31
2023-03-10T07:14:35.735Z,98156.53
2023-03-10T07:19:27.390Z,98155.22
2023-03-10T07:24:19.799Z,98157.31
2023-03-10T07:29:11.710Z,98156.81
2023-03-10T07:34:04.284Z,97857.81
2023-03-10T07:38:56.484Z,98096.66
2023-03-10T07:43:53.417Z,98193.41
2023-03-10T07:48:45.176Z,98004.91
2023-03-10T07:53:37.199Z,98051.63
2023-03-10T07:58:29.018Z,97997.81
2023-03-10T08:03:20.736Z,98088.22
2023-03-10T08:08:12.464Z,98148.94
2023-03-10T08:13:06.168Z,97865.19
2023-03-10T08:17:57.911Z,98204.94
2023-03-10T08:22:49.580Z,98211.72
2023-03-10T08:27:41.620Z,98152.31
2023-03-10T08:32:34.457Z,98170.44
2023-03-10T08:37:26.272Z,98196.59
2023-03-10T08:42:18.010Z,98190.84
2023-03-10T08:47:09.790Z,98119.28
2023-03-10T08:52:01.937Z,98154.72
2023-03-10T08:56:53.862Z,97989.81
2023-03-10T09:01:46.567Z,98197.47
2023-03-10T09:06:38.801Z,98064.22
2023-03-10T09:11:32.571Z,98129.69
2023-03-10T09:16:25.323Z,98056.81
2023-03-10T09:21:20.573Z,98217.59
2023-03-10T09:26:12.684Z,98147.38
2023-03-10T09:31:05.921Z,97941.03
2023-03-10T09:36:06.419Z,98212.44
2023-03-10T09:41:21.534Z,98210.09
2023-03-10T09:46:51.746Z,98211.25
2023-03-10T09:51:49.053Z,98207.16
2023-03-10T09:56:41.272Z,98154.03
2023-03-10T10:01:34.812Z,98190.28
2023-03-10T10:06:32.761Z,98186.00
2023-03-10T10:11:24.489Z,98106.91
2023-03-10T10:16:34.813Z,98212.59
2023-03-10T10:21:42.568Z,98175.88
2023-03-10T10:26:34.632Z,98072.63
2023-03-10T10:31:28.871Z,98209.41
2023-03-10T10:36:24.515Z,98145.50
2023-03-10T10:41:23.772Z,98209.88
2023-03-10T10:46:23.398Z,98005.38
2023-03-10T10:51:30.298Z,98089.00
2023-03-10T10:56:24.194Z,98222.72
2023-03-10T11:01:17.096Z,98170.06
2023-03-10T11:06:32.223Z,97848.38
2023-03-10T11:11:34.475Z,98225.94
2023-03-10T11:16:39.789Z,98168.72
2023-03-10T11:21:36.571Z,98051.69
2023-03-10T11:26:44.198Z,98202.41
2023-03-10T11:31:45.020Z,98072.56
2023-03-10T11:36:57.571Z,97932.69
2023-03-10T11:41:56.526Z,98157.66
2023-03-10T11:46:50.929Z,98227.53
2023-03-10T11:51:47.123Z,98173.75
2023-03-10T11:56:40.594Z,98143.34
2023-03-10T12:01:51.788Z,98212.56
2023-03-10T12:07:01.367Z,98028.72
2023-03-10T12:11:54.351Z,98101.03
2023-03-10T12:16:47.963Z,98179.19
2023-03-10T12:21:39.663Z,98070.22
2023-03-10T12:26:59.616Z,98180.81
2023-03-10T12:31:55.290Z,98132.97
2023-03-10T12:36:51.955Z,98175.25
2023-03-10T12:41:52.263Z,98173.22
2023-03-10T12:46:54.817Z,98170.66
2023-03-10T12:51:51.610Z,98040.47
2023-03-10T12:56:52.797Z,97962.47
2023-03-10T13:01:55.471Z,98142.66
2023-03-10T13:06:49.799Z,97877.91
2023-03-10T13:11:45.240Z,97897.44
2023-03-10T13:16:36.928Z,98057.75
2023-03-10T13:21:34.761Z,98019.03
2023-03-10T13:26:27.840Z,97878.63
2023-03-10T13:31:49.744Z,98136.66
2023-03-10T13:36:42.533Z,97863.88
2023-03-10T13:41:37.386Z,98132.59
2023-03-10T13:46:32.118Z,98148.22
2023-03-10T13:51:31.913Z,98075.34
2023-03-10T13:56:38.985Z,97907.34
2023-03-10T14:01:34.771Z,98176.91
2023-03-10T14:06:28.825Z,98195.56
2023-03-10T14:11:32.823Z,98154.78
2023-03-10T14:16:47.530Z,98232.72
2023-03-10T14:21:52.440Z,98223.06
2023-03-10T14:26:50.505Z,98224.13
2023-03-10T14:31:43.637Z,98273.84
2023-03-10T14:36:35.848Z,98291.41
2023-03-10T14:41:27.882Z,98298.50
2023-03-10T14:46:19.812Z,98299.56
2023-03-10T14:51:19.984Z,98218.38
2023-03-10T14:56:21.591Z,98301.38
2023-03-10T15:01:14.032Z,98257.88
2023-03-10T15:06:06.816Z,98309.50
2023-03-10T15:10:59.276Z,98197.16
2023-03-10T15:15:51.698Z,98257.81
2023-03-10T15:20:43.484Z,98232.63
2023-03-10T15:25:35.254Z,98269.69
2023-03-10T15:30:32.930Z,98341.81
2023-03-10T15:35:25.266Z,98359.84
2023-03-10T15:40:19.710Z,97976.97
2023-03-10T15:45:12.291Z,98196.16
2023-03-10T15:50:05.436Z,98247.28
2023-03-10T15:54:59.405Z,98263.69
2023-03-10T15:59:51.254Z,98313.41
2023-03-10T16:04:46.485Z,98301.84
2023-03-10T16:09:39.176Z,98351.34
2023-03-10T16:14:31.064Z,98276.94
2023-03-10T16:19:23.327Z,98358.38
2023-03-10T16:24:15.864Z,98370.25
2023-03-10T16:29:08.896Z,97908.69
2023-03-10T16:34:00.642Z,98386.84
2023-03-10T16:38:53.780Z,98515.47
2023-03-10T16:43:47.850Z,98164.91
2023-03-10T16:48:45.719Z,98651.78
2023-03-10T16:53:37.628Z,98299.38
2023-03-10T16:58:29.336Z,98778.94
2023-03-10T17:03:21.860Z,98826.75
2023-03-10T17:08:13.583Z,98715.56
2023-03-10T17:13:05.268Z,98820.53
2023-03-10T17:17:56.914Z,98921.53
2023-03-10T17:22:48.784Z,98842.19
2023-03-10T17:27:44.454Z,98972.00
2023-03-10T17:32:37.904Z,98934.94
2023-03-10T17:37:30.675Z,98924.88
2023-03-10T17:42:23.877Z,99017.31
2023-03-10T17:47:15.592Z,98940.28
2023-03-10T17:52:07.897Z,99043.31
2023-03-10T17:56:59.597Z,99082.13
2023-03-10T18:01:51.948Z,98924.56
2023-03-10T18:06:44.309Z,98914.88
2023-03-10T18:11:36.885Z,99172.09
2023-03-10T18:16:32.302Z,99197.28
2023-03-10T18:21:25.342Z,99079.34
2023-03-10T18:26:20.291Z,99206.81
2023-03-10T18:31:21.401Z,99062.47
2023-03-10T18:36:14.732Z,99268.16
2023-03-10T18:41:07.367Z,99348.25
2023-03-10T18:45:59.314Z,99251.50
2023-03-10T18:50:52.395Z,99357.16
2023-03-10T18:55:44.029Z,99366.09
2023-03-10T19:00:37.665Z,99414.56
2023-03-10T19:05:29.326Z,99429.59
2023-03-10T19:10:22.641Z,99391.59
2023-03-10T19:15:16.117Z,99393.19
2023-03-10T19:20:12.917Z,99239.88
2023-03-10T19:25:07.127Z,99478.97
2023-03-10T19:29:59.088Z,99400.13
2023-03-10T19:34:51.114Z,99398.53
2023-03-10T19:39:44.673Z,99462.69
2023-03-10T19:44:40.166Z,99415.25
2023-03-10T19:49:35.398Z,99568.16
2023-03-10T19:54:27.401Z,99537.88
2023-03-10T19:59:19.855Z,99496.31
2023-03-10T20:04:11.787Z,99591.22
2023-03-10T20:09:09.047Z,99518.97
2023-03-10T20:14:00.738Z,99245.34
2023-03-10T20:18:53.327Z,99612.94
2023-03-10T20:23:47.643Z,99628.72
2023-03-10T20:28:42.019Z,99512.69
2023-03-10T20:33:35.290Z,99619.81
2023-03-10T20:38:27.947Z,99688.22
2023-03-10T20:43:21.351Z,99547.03
2023-03-10T20:48:13.121Z,99635.69
2023-03-10T20:53:05.333Z,99614.53
2023-03-10T20:58:00.926Z,99613.09
2023-03-10T21:02:56.985Z,99673.31
2023-03-10T21:07:50.583Z,99574.97
2023-03-10T21:12:43.155Z,99554.50
2023-03-10T21:17:34.890Z,99759.81
2023-03-10T21:22:30.319Z,99703.81
2023-03-10T21:27:22.936Z,99786.84
2023-03-10T21:32:14.653Z,99587.91
2023-03-10T21:37:08.591Z,99790.31
2023-03-10T21:42:00.373Z,99772.97
2023-03-10T21:46:52.939Z,99814.13
2023-03-10T21:51:44.938Z,99800.78
2023-03-10T21:56:37.405Z,99784.13
2023-03-10T22:01:29.224Z,99841.53
2023-03-10T22:06:21.026Z,99433.50
2023-03-10T22:11:13.437Z,99859.47
2023-03-10T22:16:10.565Z,99866.44
2023-03-10T22:21:02.269Z,99838.63
2023-03-10T22:25:53.907Z,99850.63
2023-03-10T22:30:45.886Z,99883.75
2023-03-10T22:35:40.497Z,99851.94
2023-03-10T22:40:32.374Z,99880.94
2023-03-10T22:45:26.929Z,99818.78
2023-03-10T22:50:23.480Z,99925.13
2023-03-10T22:55:18.079Z,99806.78
2023-03-10T23:00:15.045Z,99931.97
2023-03-10T23:05:08.129Z,99914.72
2023-03-10T23:10:00.179Z,99895.06
2023-03-10T23:14:52.899Z,99895.59
2023-03-10T23:19:44.626Z,99896.69
2023-03-10T23:24:37.089Z,99958.91
2023-03-10T23:29:28.807Z,99854.94
2023-03-10T23:34:20.537Z,99971.16
2023-03-10T23:39:13.531Z,99927.56
2023-03-10T23:44:06.747Z,99967.19
2023-03-10T23:48:58.442Z,99963.91
2023-03-10T23:53:52.492Z,99899.31
2023-03-10T23:58:44.189Z,99824.66
